Aviation Digital Data Service (ADDS)

Output produced by METARs form (1953 UTC 30 September 2014)
found at http://aviationweather.gov/adds/metars/
 
KHUL 301910Z 3019/0118 VRB03KT P6SM -DZ OVC021 
     FM302000 VRB03KT P6SM -DZ BKN020 
     FM010000 VRB03KT P6SM BKN030 
     FM010200 04004KT P6SM BKN025 
     FM010500 02004KT P6SM BKN015 
     FM010700 02005KT P6SM BKN008 
     FM011400 03005KT P6SM SCT025